createdAt,value
2017-12-01T09:34:33.167Z,36.16
2017-12-01T09:35:05.164Z,35.97
2017-12-01T09:35:37.238Z,35.97
2017-12-01T09:36:09.250Z,36.07
2017-12-01T09:36:41.210Z,36.16
2017-12-01T09:37:13.163Z,35.97
2017-12-01T09:37:45.173Z,36.07
2017-12-01T09:38:17.187Z,36.07
2017-12-01T09:38:49.317Z,36.07
2017-12-01T09:39:21.372Z,36.07
2017-12-01T09:39:53.364Z,36.16
2017-12-01T09:40:25.467Z,36.08
2017-12-01T09:40:57.483Z,36.18
2017-12-01T09:41:29.507Z,36.08
2017-12-01T09:42:01.574Z,35.97
2017-12-01T09:42:33.579Z,36.08
2017-12-01T09:43:05.567Z,36.08
2017-12-01T09:43:37.589Z,36.08
2017-12-01T09:44:09.549Z,36.18
2017-12-01T09:44:41.568Z,36.18
2017-12-01T09:45:13.565Z,36.08
2017-12-01T09:45:45.586Z,36.08
2017-12-01T09:46:17.654Z,36.08
2017-12-01T09:46:49.656Z,36.08
2017-12-01T09:47:21.684Z,35.99
2017-12-01T09:47:53.681Z,36.28
2017-12-01T09:48:25.737Z,36.28
2017-12-01T09:48:57.728Z,36.28
2017-12-01T09:49:29.743Z,36.08
2017-12-01T09:50:01.751Z,36.38
2017-12-01T09:50:33.762Z,36.28
2017-12-01T09:51:05.772Z,36.18
2017-12-01T09:51:37.804Z,36.18
2017-12-01T09:52:09.828Z,36.28
2017-12-01T09:52:41.802Z,36.38
2017-12-01T09:53:13.812Z,36.28
2017-12-01T09:53:45.842Z,36.18
2017-12-01T09:54:17.820Z,36.3
2017-12-01T09:54:49.820Z,36.1
2017-12-01T09:55:21.867Z,36.3
2017-12-01T09:55:53.878Z,36.28
2017-12-01T09:56:25.920Z,36.08
2017-12-01T09:56:57.963Z,36.3
2017-12-01T09:57:30.793Z,36.1
2017-12-01T09:58:02.810Z,36.2
2017-12-01T09:58:34.876Z,36.38
2017-12-01T09:59:06.903Z,36.2
2017-12-01T09:59:38.952Z,36.2
2017-12-01T10:00:10.989Z,36.1
2017-12-01T10:00:43.069Z,36.2
2017-12-01T10:01:15.102Z,36.1
2017-12-01T10:01:47.161Z,36.4
2017-12-01T10:02:19.254Z,36.2
2017-12-01T10:02:51.247Z,36.2
2017-12-01T10:03:23.218Z,36.3
2017-12-01T10:03:55.248Z,36.3
2017-12-01T10:04:27.234Z,36.2
2017-12-01T10:04:59.236Z,36.2
2017-12-01T10:05:31.338Z,36.2
2017-12-01T10:06:03.361Z,36.4
2017-12-01T10:06:35.346Z,36.2
2017-12-01T10:07:07.397Z,36.2
2017-12-01T10:07:39.384Z,36.3
2017-12-01T10:08:11.358Z,36.2
2017-12-01T10:08:43.488Z,36.2
2017-12-01T10:09:15.486Z,36.1
2017-12-01T10:09:47.539Z,36.2
2017-12-01T10:10:19.567Z,36.2
2017-12-01T10:10:51.550Z,36.2
2017-12-01T10:11:23.615Z,36.3
2017-12-01T10:11:55.689Z,36.3
2017-12-01T10:12:27.724Z,36.2
2017-12-01T10:12:59.703Z,36.4
2017-12-01T10:13:31.767Z,36.3
2017-12-01T10:14:03.845Z,36.2
2017-12-01T10:14:36.005Z,36.2
2017-12-01T10:15:07.992Z,36.2
2017-12-01T10:15:40.003Z,36.2
2017-12-01T10:16:12.010Z,36.1
2017-12-01T10:16:44.031Z,35.91
2017-12-01T10:17:16.092Z,36.4
2017-12-01T10:17:48.100Z,36.2
2017-12-01T10:18:20.067Z,36
2017-12-01T10:18:52.111Z,36
2017-12-01T10:19:24.070Z,36.3
2017-12-01T10:19:56.094Z,36
2017-12-01T10:20:28.061Z,36.2
2017-12-01T10:21:00.081Z,36.2
2017-12-01T10:21:32.143Z,36.3
2017-12-01T10:22:04.148Z,36.3
2017-12-01T10:22:36.160Z,35.91
2017-12-01T10:23:08.707Z,35.91
2017-12-01T10:23:40.781Z,36.1
2017-12-01T10:24:12.797Z,36.2
2017-12-01T10:24:44.799Z,36.1
2017-12-01T10:25:16.808Z,36.2
2017-12-01T10:25:49.526Z,36
2017-12-01T10:26:21.525Z,36.2
2017-12-01T10:26:53.520Z,35.91
2017-12-01T10:27:25.592Z,36
2017-12-01T10:27:57.699Z,36.3
2017-12-01T10:28:29.791Z,35.91
2017-12-01T10:29:01.802Z,35.91
2017-12-01T10:29:33.861Z,36.1
2017-12-01T10:30:05.928Z,36.2
2017-12-01T10:30:37.946Z,36.1
2017-12-01T10:31:10.048Z,36.1
2017-12-01T10:31:42.242Z,35.81
2017-12-01T10:32:14.388Z,36.1
2017-12-01T10:32:46.364Z,36.2
2017-12-01T10:33:18.355Z,35.91
2017-12-01T10:33:50.366Z,36.1
2017-12-01T10:34:22.538Z,36.2
2017-12-01T10:34:54.506Z,36.2
2017-12-01T10:35:26.581Z,36
2017-12-01T10:35:58.565Z,36
2017-12-01T10:36:31.693Z,36.1
2017-12-01T10:37:03.741Z,36.1
2017-12-01T10:37:35.749Z,36.1
2017-12-01T10:38:07.738Z,36
2017-12-01T10:38:39.723Z,36
2017-12-01T10:39:11.754Z,36.1
2017-12-01T10:39:43.784Z,36.1
2017-12-01T10:40:15.764Z,36.1
2017-12-01T10:40:47.794Z,36.1
2017-12-01T10:41:19.815Z,36.1
2017-12-01T10:41:51.848Z,36.2
2017-12-01T10:42:23.949Z,36.1
2017-12-01T10:42:56.009Z,36.2
2017-12-01T10:43:28.048Z,36.1
2017-12-01T10:44:00.051Z,36.2
2017-12-01T10:44:32.069Z,35.91
2017-12-01T10:45:04.054Z,36.1
2017-12-01T10:45:36.118Z,36.1
2017-12-01T10:46:08.263Z,36.1
2017-12-01T10:46:40.277Z,36
2017-12-01T10:47:12.280Z,35.91
2017-12-01T10:47:44.261Z,36.1
2017-12-01T10:48:16.301Z,36.1
2017-12-01T10:48:48.288Z,36.1
2017-12-01T10:49:20.272Z,36.1
2017-12-01T10:49:52.267Z,36.1
2017-12-01T10:50:24.309Z,36.1
2017-12-01T10:50:56.323Z,35.91
2017-12-01T10:51:28.264Z,36.1
2017-12-01T10:52:00.302Z,36.1
2017-12-01T10:52:32.309Z,36.1
2017-12-01T10:53:04.351Z,36.2
2017-12-01T10:53:36.489Z,36
2017-12-01T10:54:08.516Z,36.3
2017-12-01T10:54:40.541Z,36.2
2017-12-01T10:55:12.566Z,36
2017-12-01T10:55:44.566Z,36.28
2017-12-01T10:56:16.617Z,36.2
2017-12-01T10:56:48.610Z,36.2
2017-12-01T10:57:20.645Z,36.3
2017-12-01T10:57:52.666Z,36.18
2017-12-01T10:58:24.703Z,36.2
2017-12-01T10:58:56.728Z,36.18
2017-12-01T10:59:28.758Z,36.18
2017-12-01T11:00:00.772Z,36.38
2017-12-01T11:00:32.795Z,36.28
2017-12-01T11:01:04.754Z,36.18
2017-12-01T11:01:36.767Z,36.28
2017-12-01T11:02:08.803Z,36.18
2017-12-01T11:02:40.976Z,36.18
2017-12-01T11:03:13.522Z,36.28
2017-12-01T11:03:45.561Z,36.18
2017-12-01T11:04:17.599Z,36.18
2017-12-01T11:04:50.379Z,36.18
2017-12-01T11:05:22.605Z,36.28
2017-12-01T11:05:55.165Z,36.38
2017-12-01T11:06:27.282Z,36.28
2017-12-01T11:06:59.288Z,36.18
2017-12-01T11:07:31.261Z,36.18
2017-12-01T11:08:03.336Z,36.28
2017-12-01T11:08:35.356Z,36.18
2017-12-01T11:09:07.376Z,36.28
2017-12-01T11:09:39.400Z,36.38
2017-12-01T11:10:11.492Z,36.28
2017-12-01T11:10:43.497Z,36.28
2017-12-01T11:11:15.555Z,36.18
2017-12-01T11:11:47.670Z,36.38
2017-12-01T11:12:20.404Z,36.38
2017-12-01T11:12:53.183Z,36.18
2017-12-01T11:13:25.209Z,36.28
2017-12-01T11:13:57.409Z,36.28
2017-12-01T11:14:29.595Z,36.28
2017-12-01T11:15:01.739Z,36.38
2017-12-01T11:15:33.753Z,35.99
2017-12-01T11:16:05.975Z,36.18
2017-12-01T11:16:38.408Z,36.28
2017-12-01T11:17:10.472Z,36.28
2017-12-01T11:17:42.494Z,36.28
2017-12-01T11:18:14.492Z,36.28
2017-12-01T11:18:47.984Z,36.28
2017-12-01T11:19:23.232Z,36.38
2017-12-01T11:19:55.369Z,36.28
2017-12-01T11:20:27.347Z,36.28
2017-12-01T11:20:59.639Z,35.99
2017-12-01T11:21:31.629Z,35.8
2017-12-01T11:22:03.684Z,36.28
2017-12-01T11:22:35.831Z,36.28
2017-12-01T11:23:07.873Z,36.38
2017-12-01T11:23:40.096Z,36.28
2017-12-01T11:24:12.070Z,36.18
2017-12-01T11:24:44.030Z,36.38
2017-12-01T11:25:16.074Z,36.38
2017-12-01T11:25:48.209Z,36.38
2017-12-01T11:26:20.371Z,36.28
2017-12-01T11:26:52.474Z,36.28
2017-12-01T11:27:24.492Z,36.28
2017-12-01T11:27:56.507Z,36.38
2017-12-01T11:28:28.543Z,36.28
2017-12-01T11:29:00.609Z,36.38
2017-12-01T11:29:32.736Z,36.08
2017-12-01T11:30:04.835Z,36.18
2017-12-01T11:30:36.877Z,36.08
2017-12-01T11:31:08.918Z,36.18
2017-12-01T11:31:40.908Z,35.99
2017-12-01T11:32:12.978Z,35.99
2017-12-01T11:32:44.994Z,36.08
2017-12-01T11:33:17.024Z,36.18
2017-12-01T11:33:49.067Z,36.18
2017-12-01T11:34:21.095Z,36.08
2017-12-01T11:34:53.097Z,36.16
2017-12-01T11:35:25.212Z,36.08
2017-12-01T11:35:57.190Z,36.08
2017-12-01T11:36:29.203Z,36.08
2017-12-01T11:37:01.208Z,36.07
2017-12-01T11:37:33.200Z,36.28
2017-12-01T11:38:05.158Z,36.18
2017-12-01T11:38:37.150Z,35.99
2017-12-01T11:39:09.130Z,36.08
2017-12-01T11:39:41.140Z,36.07
2017-12-01T11:40:13.116Z,36.08
2017-12-01T11:40:45.145Z,36.07
2017-12-01T11:41:17.940Z,36.16
2017-12-01T11:41:49.970Z,36.08
2017-12-01T11:42:21.981Z,36.07
2017-12-01T11:42:53.979Z,36.07
2017-12-01T11:43:25.999Z,36.07
2017-12-01T11:43:57.952Z,36.46
2017-12-01T11:44:29.924Z,35.97
2017-12-01T11:45:01.982Z,35.97
2017-12-01T11:45:33.958Z,36.07
2017-12-01T11:46:06.027Z,36.16
2017-12-01T11:46:38.012Z,35.97
2017-12-01T11:47:10.030Z,36.36
2017-12-01T11:47:42.022Z,35.97
2017-12-01T11:48:14.041Z,36.07
2017-12-01T11:48:46.091Z,36.36
2017-12-01T11:49:18.164Z,35.97
2017-12-01T11:49:50.236Z,36.46
2017-12-01T11:50:22.275Z,36.07
2017-12-01T11:50:54.341Z,36.07
2017-12-01T11:51:26.430Z,35.97
2017-12-01T11:51:58.447Z,36.07
2017-12-01T11:52:30.458Z,36.07
2017-12-01T11:53:02.499Z,36.07
2017-12-01T11:53:34.477Z,35.97
2017-12-01T11:54:06.482Z,36.36
2017-12-01T11:54:38.585Z,36.46
2017-12-01T11:55:10.588Z,36.46
2017-12-01T11:55:42.593Z,36.26
2017-12-01T11:56:14.593Z,36.16
2017-12-01T11:56:46.586Z,36.36
2017-12-01T11:57:18.547Z,36.26
2017-12-01T11:57:50.555Z,36.36
2017-12-01T11:58:22.577Z,36.26
2017-12-01T11:58:54.616Z,36.07
2017-12-01T11:59:26.662Z,36.26
2017-12-01T11:59:58.670Z,36.36
2017-12-01T12:00:30.712Z,36.36
2017-12-01T12:01:02.750Z,36.26
2017-12-01T12:01:34.786Z,36.36
2017-12-01T12:02:06.822Z,36.26
2017-12-01T12:02:38.960Z,36.26
2017-12-01T12:03:10.972Z,36.36
2017-12-01T12:03:43.005Z,36.36
2017-12-01T12:04:15.034Z,36.26
2017-12-01T12:04:47.013Z,36.26
2017-12-01T12:05:18.958Z,36.26
2017-12-01T12:05:50.967Z,36.46
2017-12-01T12:06:22.958Z,36.26
2017-12-01T12:06:54.981Z,36.36
2017-12-01T12:07:26.976Z,36.65
2017-12-01T12:07:58.950Z,36.46
2017-12-01T12:08:31.002Z,36.26
2017-12-01T12:09:03.042Z,36.36
2017-12-01T12:09:35.035Z,36.36
2017-12-01T12:10:07.059Z,36.36
2017-12-01T12:10:39.068Z,36.26
2017-12-01T12:11:11.102Z,36.07
2017-12-01T12:11:43.083Z,36.46
2017-12-01T12:12:15.067Z,36.46
2017-12-01T12:12:47.067Z,36.36
2017-12-01T12:13:19.016Z,36.07
2017-12-01T12:13:51.027Z,36.07
2017-12-01T12:14:23.075Z,36.46
2017-12-01T12:14:55.154Z,36.36
2017-12-01T12:15:27.139Z,36.26
2017-12-01T12:15:59.194Z,36.36
2017-12-01T12:16:31.171Z,36.07
2017-12-01T12:17:03.169Z,36.36
2017-12-01T12:17:36.600Z,36.46
2017-12-01T12:18:18.015Z,36.26
2017-12-01T12:18:50.035Z,36.07
2017-12-01T12:19:22.044Z,36.26
2017-12-01T12:19:54.066Z,36.36
2017-12-01T12:20:26.083Z,36.36
2017-12-01T12:20:58.113Z,36.46
2017-12-01T12:21:30.129Z,36.36
2017-12-01T12:22:02.147Z,36.36
2017-12-01T12:22:34.138Z,36.26
2017-12-01T12:23:06.153Z,36.36
2017-12-01T12:23:38.191Z,36.26
2017-12-01T12:24:10.247Z,36.36
2017-12-01T12:24:43.844Z,36.07
2017-12-01T12:25:29.913Z,36.46
2017-12-01T12:26:03.385Z,36.26
2017-12-01T12:26:35.400Z,36.07
2017-12-01T12:27:07.373Z,36.46
2017-12-01T12:27:39.397Z,36.36
2017-12-01T12:28:11.400Z,36.36
2017-12-01T12:28:43.458Z,35.88
2017-12-01T12:29:15.486Z,36.36
2017-12-01T12:29:47.529Z,36.26
2017-12-01T12:30:19.526Z,36.26
2017-12-01T12:30:51.580Z,36.36
2017-12-01T12:31:23.507Z,36.36
2017-12-01T12:31:55.502Z,36.46
2017-12-01T12:32:27.476Z,36.26
2017-12-01T12:32:59.461Z,36.36
2017-12-01T12:33:31.508Z,36.46
2017-12-01T12:34:03.509Z,36.36
2017-12-01T12:34:35.553Z,36.36
2017-12-01T12:35:07.561Z,36.36
2017-12-01T12:35:40.362Z,36.26
2017-12-01T12:36:13.201Z,36.16
2017-12-01T12:36:45.219Z,36.26
2017-12-01T12:37:17.221Z,36.26
2017-12-01T12:37:49.249Z,36.26
2017-12-01T12:38:21.261Z,36.36
2017-12-01T12:38:53.342Z,36.26
2017-12-01T12:39:25.332Z,36.26
2017-12-01T12:39:57.358Z,36.36
2017-12-01T12:40:29.355Z,35.97
2017-12-01T12:41:01.307Z,36.36
2017-12-01T12:41:33.333Z,36.26
2017-12-01T12:42:05.315Z,36.26
2017-12-01T12:42:37.356Z,36.26
2017-12-01T12:43:09.401Z,36.26
2017-12-01T12:43:41.456Z,36.36
2017-12-01T12:44:13.448Z,36.46
2017-12-01T12:44:49.852Z,36.26
2017-12-01T12:45:21.894Z,36.36
2017-12-01T12:45:53.969Z,36.36
2017-12-01T12:46:25.922Z,36.36
2017-12-01T12:46:57.919Z,36.16
2017-12-01T12:47:29.957Z,36.36
2017-12-01T12:48:01.965Z,36.36
2017-12-01T12:48:34.017Z,36.36
2017-12-01T12:49:06.075Z,36.26
2017-12-01T12:49:38.106Z,36.36
2017-12-01T12:50:10.182Z,36.36
2017-12-01T12:50:42.259Z,36.36
2017-12-01T12:51:14.271Z,36.36
2017-12-01T12:51:46.256Z,36.26
2017-12-01T12:52:18.303Z,36.36
2017-12-01T12:52:50.330Z,36.36
2017-12-01T12:53:22.417Z,36.65
2017-12-01T12:53:54.579Z,36.36
2017-12-01T12:54:26.571Z,36.46
2017-12-01T12:54:58.589Z,35.97
2017-12-01T12:55:30.591Z,36.55
2017-12-01T12:56:02.741Z,36.65
2017-12-01T12:56:34.934Z,36.55
2017-12-01T12:57:06.959Z,36.74
2017-12-01T12:57:38.944Z,36.36
2017-12-01T12:58:10.971Z,36.55
2017-12-01T12:58:43.006Z,36.46
2017-12-01T12:59:15.022Z,35.97
2017-12-01T12:59:47.136Z,36.46
2017-12-01T13:00:19.169Z,36.55
2017-12-01T13:00:51.227Z,36.46
2017-12-01T13:01:23.337Z,36.36
2017-12-01T13:01:55.386Z,36.26
2017-12-01T13:02:27.993Z,36.46
2017-12-01T13:03:00.198Z,36.36
2017-12-01T13:03:32.210Z,36.16
2017-12-01T13:04:04.219Z,36.07
2017-12-01T13:04:36.248Z,36.55
2017-12-01T13:05:08.243Z,36.26
2017-12-01T13:05:40.212Z,36.36
2017-12-01T13:06:12.287Z,35.88
2017-12-01T13:06:44.318Z,35.97
2017-12-01T13:07:16.528Z,36.36
2017-12-01T13:07:48.589Z,36.36
2017-12-01T13:08:20.606Z,36.36
2017-12-01T13:08:52.650Z,36.07
2017-12-01T13:09:24.588Z,35.97
2017-12-01T13:09:56.599Z,36.36
2017-12-01T13:10:28.591Z,36.38
2017-12-01T13:11:00.624Z,35.97
2017-12-01T13:11:32.608Z,36.07
2017-12-01T13:12:04.615Z,36.08
2017-12-01T13:12:36.650Z,36.07
2017-12-01T13:13:08.687Z,35.97
2017-12-01T13:13:40.720Z,36.07
2017-12-01T13:14:12.742Z,36.07
2017-12-01T13:14:44.754Z,36.08
2017-12-01T13:15:16.784Z,36.18
2017-12-01T13:15:48.840Z,36.18
2017-12-01T13:16:20.842Z,36.08
2017-12-01T13:16:52.855Z,36.18
2017-12-01T13:17:24.856Z,36.08
2017-12-01T13:17:56.840Z,36.28
2017-12-01T13:18:28.843Z,36.38
2017-12-01T13:19:00.847Z,36.18
2017-12-01T13:19:32.993Z,36.1
2017-12-01T13:20:04.978Z,36.2
2017-12-01T13:20:36.978Z,36.1
2017-12-01T13:21:08.970Z,36.1
2017-12-01T13:21:41.001Z,36.2
2017-12-01T13:22:13.008Z,35.42
2017-12-01T13:22:45.108Z,35.54
2017-12-01T13:23:17.101Z,35.64
2017-12-01T13:23:49.123Z,35.64
2017-12-01T13:24:21.168Z,35.83
2017-12-01T13:24:53.196Z,35.83
2017-12-01T13:25:25.227Z,35.73
2017-12-01T13:25:57.283Z,35.85
2017-12-01T13:26:29.339Z,35.56
2017-12-01T13:27:01.331Z,35.66
2017-12-01T13:27:33.436Z,35.46
2017-12-01T13:28:05.404Z,35.56
2017-12-01T13:28:37.404Z,35.56
2017-12-01T13:29:09.387Z,35.27
2017-12-01T13:29:41.410Z,35.67
2017-12-01T13:30:13.449Z,35.57
2017-12-01T13:30:45.475Z,35.67
2017-12-01T13:31:17.486Z,35.38
2017-12-01T13:31:49.533Z,35.38
2017-12-01T13:32:21.541Z,35.28
2017-12-01T13:32:54.418Z,35.19
2017-12-01T13:33:26.515Z,35.19
2017-12-01T13:33:58.594Z,35.48
2017-12-01T13:34:30.580Z,35.38
2017-12-01T13:35:02.589Z,35.38
2017-12-01T13:35:34.687Z,35.38
2017-12-01T13:36:06.751Z,35.38
2017-12-01T13:36:38.735Z,35.57
2017-12-01T13:37:10.759Z,35.38
2017-12-01T13:37:42.778Z,35.28
2017-12-01T13:38:14.735Z,35.49
2017-12-01T13:38:46.782Z,35.09
2017-12-01T13:39:18.820Z,35.11
2017-12-01T13:39:50.788Z,35.11
2017-12-01T13:40:22.925Z,35.21
2017-12-01T13:40:54.908Z,35.4
2017-12-01T13:41:26.898Z,35.11
2017-12-01T13:41:58.974Z,35.48
2017-12-01T13:42:31.058Z,35.3
2017-12-01T13:43:03.062Z,35.49
2017-12-01T13:43:35.079Z,35.49
2017-12-01T13:44:07.071Z,35.3
2017-12-01T13:44:39.076Z,35.49
2017-12-01T13:45:11.068Z,35.48
2017-12-01T13:45:43.143Z,35.3
2017-12-01T13:46:15.162Z,35.28
2017-12-01T13:46:47.225Z,35.38
2017-12-01T13:47:19.226Z,35.38
2017-12-01T13:47:51.245Z,35.38
2017-12-01T13:48:23.254Z,35.48
2017-12-01T13:48:55.373Z,35.38
2017-12-01T13:49:27.309Z,35.48
2017-12-01T13:49:59.317Z,35.57
2017-12-01T13:50:31.325Z,35.67
2017-12-01T13:51:03.355Z,35.67
2017-12-01T13:51:35.393Z,35.57
2017-12-01T13:52:07.949Z,35.48
2017-12-01T13:52:39.894Z,35.48
2017-12-01T13:53:12.025Z,35.77
2017-12-01T13:53:44.064Z,35.77
2017-12-01T13:54:16.081Z,35.57
2017-12-01T13:54:48.085Z,35.57
2017-12-01T13:55:20.132Z,35.48
2017-12-01T13:55:52.080Z,35.57
2017-12-01T13:56:24.048Z,35.27
2017-12-01T13:56:56.048Z,35.48
2017-12-01T13:57:28.050Z,35.46
2017-12-01T13:58:00.082Z,35.66
2017-12-01T13:58:32.076Z,35.66
2017-12-01T13:59:04.087Z,35.36
2017-12-01T13:59:36.139Z,35.46
2017-12-01T14:00:08.121Z,35.56
2017-12-01T14:00:40.176Z,35.56
2017-12-01T14:01:12.226Z,35.46
2017-12-01T14:01:44.222Z,35.85
2017-12-01T14:02:16.309Z,35.85
2017-12-01T14:02:48.313Z,36.04
2017-12-01T14:03:20.375Z,35.85
2017-12-01T14:03:52.392Z,35.75
2017-12-01T14:04:24.396Z,36.04
2017-12-01T14:04:56.426Z,35.73
2017-12-01T14:05:28.421Z,35.75
2017-12-01T14:06:01.132Z,35.75
2017-12-01T14:06:33.111Z,35.75
2017-12-01T14:07:05.147Z,35.94
2017-12-01T14:07:37.166Z,36.04
2017-12-01T14:08:09.178Z,35.83
2017-12-01T14:08:41.194Z,35.73
2017-12-01T14:09:13.250Z,35.83
2017-12-01T14:09:46.054Z,35.83
2017-12-01T14:10:18.078Z,35.83
2017-12-01T14:10:50.121Z,35.83
2017-12-01T14:11:22.118Z,35.64
2017-12-01T14:11:54.131Z,35.83
2017-12-01T14:12:26.202Z,35.64
2017-12-01T14:12:58.186Z,35.83
2017-12-01T14:13:30.259Z,35.93
2017-12-01T14:14:02.259Z,35.83
2017-12-01T14:14:34.284Z,35.54
2017-12-01T14:15:06.307Z,35.64
2017-12-01T14:15:38.369Z,35.64
2017-12-01T14:16:10.370Z,35.72
2017-12-01T14:16:42.472Z,35.73
2017-12-01T14:17:14.688Z,35.73
2017-12-01T14:17:46.680Z,35.72
2017-12-01T14:18:18.727Z,35.72
2017-12-01T14:18:50.740Z,35.62
2017-12-01T14:19:22.940Z,35.64
2017-12-01T14:19:54.968Z,35.52
2017-12-01T14:20:27.132Z,35.52
2017-12-01T14:20:59.235Z,35.52
2017-12-01T14:21:31.281Z,35.52
2017-12-01T14:22:03.380Z,35.62
2017-12-01T14:22:35.388Z,35.62
2017-12-01T14:23:07.385Z,35.72
2017-12-01T14:23:39.409Z,35.62
2017-12-01T14:24:11.450Z,35.91
2017-12-01T14:24:43.542Z,35.81
2017-12-01T14:25:15.615Z,35.7
2017-12-01T14:25:47.628Z,35.81
2017-12-01T14:26:19.637Z,36.1
2017-12-01T14:26:51.776Z,35.91
2017-12-01T14:27:23.757Z,35.99
2017-12-01T14:27:55.933Z,36.1
2017-12-01T14:28:28.015Z,36.1
2017-12-01T14:29:00.044Z,35.99
2017-12-01T14:29:32.070Z,36.08
2017-12-01T14:30:04.029Z,35.99
2017-12-01T14:30:36.328Z,36.18
2017-12-01T14:31:08.450Z,35.99
2017-12-01T14:31:40.778Z,36.18
2017-12-01T14:32:12.900Z,35.99
2017-12-01T14:32:44.960Z,36.08
2017-12-01T14:33:17.011Z,36.18
2017-12-01T14:33:49.064Z,36.08
2017-12-01T14:34:21.091Z,36.08
2017-12-01T14:34:53.195Z,36.08
2017-12-01T14:35:25.173Z,36.08
2017-12-01T14:35:57.234Z,36.08
2017-12-01T14:36:29.252Z,36.18
2017-12-01T14:37:01.298Z,36.18
2017-12-01T14:37:33.342Z,36.18
2017-12-01T14:38:05.431Z,36.28
2017-12-01T14:38:37.519Z,36.28
2017-12-01T14:39:09.608Z,36.26
2017-12-01T14:39:41.625Z,36.26
2017-12-01T14:40:13.648Z,36.08
2017-12-01T14:40:45.733Z,36.16
2017-12-01T14:41:17.768Z,36.26
2017-12-01T14:41:49.774Z,36.16
2017-12-01T14:42:21.788Z,36.16
2017-12-01T14:42:53.907Z,36.38
2017-12-01T14:43:25.991Z,36.26
2017-12-01T14:43:58.056Z,36.26
2017-12-01T14:44:30.113Z,36.26
2017-12-01T14:45:02.357Z,36.16
2017-12-01T14:45:34.509Z,36.26
2017-12-01T14:46:06.456Z,36.26
2017-12-01T14:46:38.453Z,36.26
2017-12-01T14:47:10.446Z,36.16
2017-12-01T14:47:42.446Z,36.26
2017-12-01T14:48:14.505Z,36.26
2017-12-01T14:48:46.579Z,35.97
2017-12-01T14:49:22.403Z,36.26
2017-12-01T14:49:54.421Z,36.26
2017-12-01T14:50:26.624Z,35.97
2017-12-01T14:50:58.822Z,35.97
2017-12-01T14:51:30.847Z,36.36
2017-12-01T14:52:02.904Z,36.05
2017-12-01T14:52:35.913Z,36.07
2017-12-01T14:53:08.132Z,36.05
2017-12-01T14:53:44.550Z,36.15
2017-12-01T14:54:16.687Z,36.15
2017-12-01T14:54:48.786Z,36.15
2017-12-01T14:55:24.471Z,35.95
2017-12-01T14:55:56.550Z,36.15
2017-12-01T14:56:28.562Z,36.05
2017-12-01T14:57:00.562Z,36.05
2017-12-01T14:57:32.580Z,36.15
2017-12-01T14:58:04.596Z,36.05
2017-12-01T14:58:36.660Z,36.15
2017-12-01T14:59:08.752Z,36.05
2017-12-01T14:59:40.901Z,36.34
2017-12-01T15:00:12.936Z,36.05
2017-12-01T15:00:44.980Z,36.24
2017-12-01T15:01:17.054Z,36.34
2017-12-01T15:01:50.090Z,35.95
2017-12-01T15:02:22.118Z,35.95
2017-12-01T15:02:54.166Z,36.34
2017-12-01T15:03:26.192Z,36.44
2017-12-01T15:03:58.182Z,36.24
2017-12-01T15:04:30.215Z,36.24
2017-12-01T15:05:02.198Z,36.34
2017-12-01T15:05:34.260Z,36.05
2017-12-01T15:06:06.312Z,36.34
2017-12-01T15:06:38.517Z,36.24
2017-12-01T15:07:10.708Z,36.15
2017-12-01T15:07:42.938Z,35.86
2017-12-01T15:08:14.932Z,36.34
2017-12-01T15:08:47.042Z,36.34
2017-12-01T15:09:19.275Z,36.34
2017-12-01T15:09:51.348Z,36.34
2017-12-01T15:10:23.693Z,36.24
2017-12-01T15:10:55.725Z,36.34
2017-12-01T15:11:27.742Z,36.05
2017-12-01T15:11:59.729Z,36.24
2017-12-01T15:12:31.788Z,36.24
2017-12-01T15:13:03.795Z,36.24
2017-12-01T15:13:35.818Z,36.34
2017-12-01T15:14:08.507Z,36.44
2017-12-01T15:14:40.678Z,35.86
2017-12-01T15:15:13.252Z,36.15
2017-12-01T15:15:45.255Z,36.24
2017-12-01T15:16:17.253Z,36.44
2017-12-01T15:16:49.264Z,36.24
2017-12-01T15:17:21.252Z,36.44
2017-12-01T15:17:53.266Z,36.32
2017-12-01T15:18:25.271Z,36.34
2017-12-01T15:18:57.306Z,36.24
2017-12-01T15:19:29.348Z,36.34
2017-12-01T15:20:01.358Z,36.24
2017-12-01T15:20:33.411Z,36.24
2017-12-01T15:21:05.381Z,36.15
2017-12-01T15:21:37.336Z,36.34
2017-12-01T15:22:09.361Z,36.44
2017-12-01T15:22:41.343Z,36.34
2017-12-01T15:23:13.329Z,36.44
2017-12-01T15:23:45.339Z,36.15
2017-12-01T15:24:17.291Z,36.13
2017-12-01T15:24:49.309Z,36.32
2017-12-01T15:25:22.075Z,36.05
2017-12-01T15:25:54.060Z,36.24
2017-12-01T15:26:26.042Z,36.34
2017-12-01T15:26:58.019Z,36.32
2017-12-01T15:27:30.066Z,36.24
2017-12-01T15:28:02.052Z,36.44
2017-12-01T15:28:34.039Z,36.24
2017-12-01T15:29:06.100Z,36.34
2017-12-01T15:29:38.125Z,36.42
2017-12-01T15:30:10.157Z,36.32
2017-12-01T15:30:42.167Z,36.42
2017-12-01T15:31:14.186Z,36.52
2017-12-01T15:31:46.327Z,36.52
2017-12-01T15:32:18.344Z,36.22
2017-12-01T15:32:50.387Z,36.32
2017-12-01T15:33:22.436Z,36.42
2017-12-01T15:33:54.410Z,36.71
2017-12-01T15:34:26.407Z,36.52
2017-12-01T15:34:58.436Z,36.42
2017-12-01T15:35:30.413Z,36.42
2017-12-01T15:36:02.438Z,36.42
2017-12-01T15:36:34.440Z,35.84
2017-12-01T15:37:06.448Z,35.94
2017-12-01T15:37:38.424Z,36.52
2017-12-01T15:38:10.382Z,36.61
2017-12-01T15:38:42.373Z,36.52
2017-12-01T15:39:14.419Z,36.61
2017-12-01T15:39:46.517Z,36.61
2017-12-01T15:40:18.545Z,36.32
2017-12-01T15:40:50.564Z,35.84
2017-12-01T15:41:22.547Z,36.61
2017-12-01T15:41:54.546Z,36.52
2017-12-01T15:42:26.556Z,36.42
2017-12-01T15:42:58.544Z,36.52
2017-12-01T15:43:30.519Z,35.84
2017-12-01T15:44:02.529Z,36.52
2017-12-01T15:44:34.566Z,36.61
2017-12-01T15:45:06.577Z,36.52
2017-12-01T15:45:38.732Z,36.52
2017-12-01T15:46:10.797Z,36.22
2017-12-01T15:46:42.809Z,36.32
2017-12-01T15:47:14.799Z,36.42
2017-12-01T15:47:46.820Z,36.52
2017-12-01T15:48:18.835Z,36.52
2017-12-01T15:48:50.863Z,36.61
2017-12-01T15:49:22.974Z,36.52
2017-12-01T15:49:54.959Z,36.42
2017-12-01T15:50:26.940Z,36.52
2017-12-01T15:50:58.942Z,36.32
2017-12-01T15:51:30.972Z,36.52
2017-12-01T15:52:03.020Z,36.42
2017-12-01T15:52:35.063Z,36.61
2017-12-01T15:53:07.051Z,36.22
2017-12-01T15:53:39.076Z,36.32
2017-12-01T15:54:11.135Z,36.32
2017-12-01T15:54:43.175Z,36.71
2017-12-01T15:55:15.163Z,36.32
2017-12-01T15:55:47.228Z,36.21
2017-12-01T15:56:19.197Z,36.32
2017-12-01T15:56:51.195Z,36.32
2017-12-01T15:57:23.183Z,36.52
2017-12-01T15:57:55.207Z,36.32
2017-12-01T15:58:27.224Z,36.61
2017-12-01T15:58:59.220Z,36.32
2017-12-01T15:59:31.251Z,36.21
2017-12-01T16:00:03.234Z,36.61
2017-12-01T16:00:35.318Z,36.21
2017-12-01T16:01:07.361Z,36.13
2017-12-01T16:01:39.429Z,36.69
2017-12-01T16:02:11.518Z,36.3
2017-12-01T16:02:43.533Z,36.69
2017-12-01T16:03:15.555Z,36.21
2017-12-01T16:03:47.573Z,36.21
2017-12-01T16:04:19.676Z,36.59
2017-12-01T16:04:51.642Z,36.21
2017-12-01T16:05:23.676Z,36.4
2017-12-01T16:05:55.813Z,36.21
2017-12-01T16:06:27.929Z,36.21
2017-12-01T16:06:59.919Z,36.79
2017-12-01T16:07:31.984Z,36.3
2017-12-01T16:08:04.070Z,36.79
2017-12-01T16:08:36.060Z,36.79
2017-12-01T16:09:08.081Z,36.79
2017-12-01T16:09:40.117Z,36.79
2017-12-01T16:10:12.147Z,36.3
2017-12-01T16:10:44.107Z,36.3
2017-12-01T16:11:16.145Z,36.3
2017-12-01T16:11:48.229Z,36.4
2017-12-01T16:12:20.286Z,36.79
2017-12-01T16:12:52.346Z,36.3
2017-12-01T16:13:24.524Z,36.21
2017-12-01T16:13:56.691Z,36.3
2017-12-01T16:14:28.697Z,36.11
2017-12-01T16:15:00.773Z,36.3
2017-12-01T16:15:32.782Z,36.11
2017-12-01T16:16:04.786Z,36.3
2017-12-01T16:16:36.813Z,36.69
2017-12-01T16:17:08.855Z,36.21
2017-12-01T16:17:40.898Z,36.21
2017-12-01T16:18:12.929Z,36.5
2017-12-01T16:18:44.966Z,36.3
2017-12-01T16:19:17.024Z,36.3
2017-12-01T16:19:49.167Z,36.5
2017-12-01T16:20:21.198Z,36.3
2017-12-01T16:20:53.267Z,36.4
2017-12-01T16:21:25.315Z,36.59
2017-12-01T16:21:57.266Z,36.3
2017-12-01T16:22:29.294Z,36.59
2017-12-01T16:23:01.413Z,36.3
2017-12-01T16:23:33.429Z,36.3
2017-12-01T16:24:05.488Z,36.5
2017-12-01T16:24:37.541Z,36.4
2017-12-01T16:25:09.584Z,36.3
2017-12-01T16:25:41.784Z,36.5
2017-12-01T16:26:13.874Z,36.59
2017-12-01T16:26:45.892Z,36.59
2017-12-01T16:27:18.502Z,36.21
2017-12-01T16:27:51.537Z,36.5
2017-12-01T16:28:23.674Z,36.3
2017-12-01T16:28:55.746Z,36.3
2017-12-01T16:29:27.846Z,36.5
2017-12-01T16:29:59.898Z,36.69
2017-12-01T16:30:33.005Z,36.59
2017-12-01T16:31:05.038Z,36.3